sensor_id;sensor_type;location;lat;lon;timestamp;temperature;humidity
14122;DHT22;7139;48.114;11.442;2024-03-23T00:54:06;9.70;99.90
14122;DHT22;7139;48.114;11.442;2024-03-23T00:56:32;9.70;99.90
14122;DHT22;7139;48.114;11.442;2024-03-23T00:58:58;9.70;99.90
14122;DHT22;7139;48.114;11.442;2024-03-23T01:01:24;9.70;99.90
14122;DHT22;7139;48.114;11.442;2024-03-23T01:03:51;9.60;99.90
14122;DHT22;7139;48.114;11.442;2024-03-23T01:06:17;9.60;99.90
14122;DHT22;7139;48.114;11.442;2024-03-23T01:08:44;9.60;99.90
14122;DHT22;7139;48.114;11.442;2024-03-23T01:11:11;9.60;99.90
14122;DHT22;7139;48.114;11.442;2024-03-23T01:13:38;9.70;99.90
14122;DHT22;7139;48.114;11.442;2024-03-23T01:16:04;9.60;99.90
14122;DHT22;7139;48.114;11.442;2024-03-23T01:18:31;9.60;99.90
14122;DHT22;7139;48.114;11.442;2024-03-23T01:20:58;9.60;99.90
14122;DHT22;7139;48.114;11.442;2024-03-23T01:23:25;9.60;99.90
14122;DHT22;7139;48.114;11.442;2024-03-23T01:25:54;9.60;99.90
14122;DHT22;7139;48.114;11.442;2024-03-23T01:28:21;9.50;99.90
14122;DHT22;7139;48.114;11.442;2024-03-23T01:30:49;9.50;99.90
14122;DHT22;7139;48.114;11.442;2024-03-23T01:33:15;9.50;99.90
14122;DHT22;7139;48.114;11.442;2024-03-23T01:35:42;9.40;99.90
14122;DHT22;7139;48.114;11.442;2024-03-23T01:38:08;9.40;99.90
14122;DHT22;7139;48.114;11.442;2024-03-23T01:40:35;9.30;99.90
14122;DHT22;7139;48.114;11.442;2024-03-23T01:43:03;9.40;99.90
14122;DHT22;7139;48.114;11.442;2024-03-23T01:45:32;9.30;99.90
14122;DHT22;7139;48.114;11.442;2024-03-23T01:47:58;9.30;99.90
14122;DHT22;7139;48.114;11.442;2024-03-23T01:50:25;9.30;99.90
14122;DHT22;7139;48.114;11.442;2024-03-23T01:52:51;9.30;99.90
14122;DHT22;7139;48.114;11.442;2024-03-23T01:55:18;9.30;99.90
14122;DHT22;7139;48.114;11.442;2024-03-23T01:57:44;9.20;99.90
14122;DHT22;7139;48.114;11.442;2024-03-23T02:00:12;9.20;99.90
14122;DHT22;7139;48.114;11.442;2024-03-23T02:02:42;9.20;99.90
14122;DHT22;7139;48.114;11.442;2024-03-23T02:05:10;9.20;99.90
14122;DHT22;7139;48.114;11.442;2024-03-23T02:07:37;9.20;99.90
14122;DHT22;7139;48.114;11.442;2024-03-23T02:10:05;9.20;99.90
14122;DHT22;7139;48.114;11.442;2024-03-23T02:12:31;9.20;99.90
14122;DHT22;7139;48.114;11.442;2024-03-23T02:14:58;9.10;99.90
14122;DHT22;7139;48.114;11.442;2024-03-23T02:17:24;9.10;99.90
14122;DHT22;7139;48.114;11.442;2024-03-23T02:19:52;9.10;99.90
14122;DHT22;7139;48.114;11.442;2024-03-23T02:22:18;9.10;99.90
14122;DHT22;7139;48.114;11.442;2024-03-23T02:24:46;9.10;99.90
14122;DHT22;7139;48.114;11.442;2024-03-23T02:27:12;9.00;99.90
14122;DHT22;7139;48.114;11.442;2024-03-23T02:29:39;9.00;99.90
14122;DHT22;7139;48.114;11.442;2024-03-23T02:32:06;9.10;99.90
14122;DHT22;7139;48.114;11.442;2024-03-23T02:34:34;9.10;99.90
14122;DHT22;7139;48.114;11.442;2024-03-23T02:37:01;9.10;99.90
14122;DHT22;7139;48.114;11.442;2024-03-23T02:39:27;9.10;99.90
14122;DHT22;7139;48.114;11.442;2024-03-23T02:41:55;9.10;99.90
14122;DHT22;7139;48.114;11.442;2024-03-23T02:44:21;9.20;99.90
14122;DHT22;7139;48.114;11.442;2024-03-23T02:46:48;9.20;99.90
14122;DHT22;7139;48.114;11.442;2024-03-23T02:49:14;9.30;99.90
14122;DHT22;7139;48.114;11.442;2024-03-23T02:51:41;9.30;99.90
14122;DHT22;7139;48.114;11.442;2024-03-23T02:54:06;9.40;99.90
14122;DHT22;7139;48.114;11.442;2024-03-23T02:56:33;9.40;99.90
14122;DHT22;7139;48.114;11.442;2024-03-23T02:59:01;9.40;99.90
14122;DHT22;7139;48.114;11.442;2024-03-23T03:01:27;9.40;99.90
14122;DHT22;7139;48.114;11.442;2024-03-23T03:03:53;9.40;99.90
14122;DHT22;7139;48.114;11.442;2024-03-23T03:06:23;9.40;99.90
14122;DHT22;7139;48.114;11.442;2024-03-23T03:08:49;9.40;99.90
14122;DHT22;7139;48.114;11.442;2024-03-23T03:11:16;9.40;99.90
14122;DHT22;7139;48.114;11.442;2024-03-23T03:13:42;9.40;99.90
14122;DHT22;7139;48.114;11.442;2024-03-23T03:16:10;9.40;99.90
14122;DHT22;7139;48.114;11.442;2024-03-23T03:18:36;9.40;99.90
14122;DHT22;7139;48.114;11.442;2024-03-23T03:21:03;9.40;99.90
14122;DHT22;7139;48.114;11.442;2024-03-23T03:23:30;9.40;99.90
14122;DHT22;7139;48.114;11.442;2024-03-23T03:25:57;9.40;99.90
14122;DHT22;7139;48.114;11.442;2024-03-23T03:28:23;9.40;99.90
14122;DHT22;7139;48.114;11.442;2024-03-23T03:30:51;9.40;99.90
14122;DHT22;7139;48.114;11.442;2024-03-23T03:33:18;9.40;99.90
14122;DHT22;7139;48.114;11.442;2024-03-23T03:35:45;9.30;99.90
14122;DHT22;7139;48.114;11.442;2024-03-23T03:38:11;9.30;99.90
14122;DHT22;7139;48.114;11.442;2024-03-23T03:40:38;9.30;99.90
14122;DHT22;7139;48.114;11.442;2024-03-23T03:43:04;9.30;99.90
14122;DHT22;7139;48.114;11.442;2024-03-23T03:45:30;9.30;99.90
14122;DHT22;7139;48.114;11.442;2024-03-23T03:47:56;9.20;99.90
14122;DHT22;7139;48.114;11.442;2024-03-23T03:50:26;9.20;99.90
14122;DHT22;7139;48.114;11.442;2024-03-23T03:52:51;9.10;99.90
14122;DHT22;7139;48.114;11.442;2024-03-23T03:55:18;9.10;99.90
14122;DHT22;7139;48.114;11.442;2024-03-23T03:57:44;9.10;99.90
14122;DHT22;7139;48.114;11.442;2024-03-23T04:00:12;9.00;99.90
14122;DHT22;7139;48.114;11.442;2024-03-23T04:02:37;9.00;99.90
14122;DHT22;7139;48.114;11.442;2024-03-23T04:05:05;9.00;99.90
14122;DHT22;7139;48.114;11.442;2024-03-23T04:07:32;9.00;99.90
14122;DHT22;7139;48.114;11.442;2024-03-23T04:09:59;8.90;99.90
14122;DHT22;7139;48.114;11.442;2024-03-23T04:12:24;8.90;99.90
14122;DHT22;7139;48.114;11.442;2024-03-23T04:14:51;9.00;99.90
14122;DHT22;7139;48.114;11.442;2024-03-23T04:17:17;9.00;99.90
14122;DHT22;7139;48.114;11.442;2024-03-23T04:19:44;9.00;99.90
14122;DHT22;7139;48.114;11.442;2024-03-23T04:22:10;9.00;99.90
14122;DHT22;7139;48.114;11.442;2024-03-23T04:24:38;9.10;99.90
14122;DHT22;7139;48.114;11.442;2024-03-23T04:27:04;9.00;99.90
14122;DHT22;7139;48.114;11.442;2024-03-23T04:29:31;9.10;99.90
14122;DHT22;7139;48.114;11.442;2024-03-23T04:31:57;9.10;99.90
14122;DHT22;7139;48.114;11.442;2024-03-23T04:34:23;9.10;99.90
14122;DHT22;7139;48.114;11.442;2024-03-23T04:36:49;9.10;99.90
14122;DHT22;7139;48.114;11.442;2024-03-23T04:39:16;9.10;99.90
14122;DHT22;7139;48.114;11.442;2024-03-23T04:41:46;9.00;99.90
14122;DHT22;7139;48.114;11.442;2024-03-23T04:44:13;9.00;99.90
14122;DHT22;7139;48.114;11.442;2024-03-23T04:46:39;9.10;99.90
14122;DHT22;7139;48.114;11.442;2024-03-23T04:49:06;9.00;99.90
14122;DHT22;7139;48.114;11.442;2024-03-23T04:51:35;9.00;99.90
14122;DHT22;7139;48.114;11.442;2024-03-23T04:54:03;9.00;99.90
14122;DHT22;7139;48.114;11.442;2024-03-23T04:56:31;9.10;99.90
14122;DHT22;7139;48.114;11.442;2024-03-23T04:59:00;9.10;99.90
14122;DHT22;7139;48.114;11.442;2024-03-23T05:01:27;9.10;99.90
14122;DHT22;7139;48.114;11.442;2024-03-23T05:03:54;9.10;99.90
14122;DHT22;7139;48.114;11.442;2024-03-23T05:06:21;9.10;99.90
14122;DHT22;7139;48.114;11.442;2024-03-23T05:08:46;9.10;99.90
14122;DHT22;7139;48.114;11.442;2024-03-23T05:11:13;9.20;99.90
14122;DHT22;7139;48.114;11.442;2024-03-23T05:13:39;9.20;99.90
14122;DHT22;7139;48.114;11.442;2024-03-23T05:16:08;9.20;99.90
14122;DHT22;7139;48.114;11.442;2024-03-23T05:18:34;9.20;99.90
14122;DHT22;7139;48.114;11.442;2024-03-23T05:21:01;9.30;99.90
14122;DHT22;7139;48.114;11.442;2024-03-23T05:23:28;9.30;99.90
14122;DHT22;7139;48.114;11.442;2024-03-23T05:25:55;9.30;99.90
14122;DHT22;7139;48.114;11.442;2024-03-23T05:28:21;9.30;99.90
14122;DHT22;7139;48.114;11.442;2024-03-23T05:30:50;9.30;99.90
14122;DHT22;7139;48.114;11.442;2024-03-23T05:33:18;9.30;99.90
14122;DHT22;7139;48.114;11.442;2024-03-23T05:35:45;9.40;99.90
14122;DHT22;7139;48.114;11.442;2024-03-23T05:38:10;9.40;99.90
14122;DHT22;7139;48.114;11.442;2024-03-23T05:40:37;9.40;99.90
14122;DHT22;7139;48.114;11.442;2024-03-23T05:43:05;9.50;99.90
14122;DHT22;7139;48.114;11.442;2024-03-23T05:45:35;9.50;99.90
14122;DHT22;7139;48.114;11.442;2024-03-23T05:48:01;9.50;99.90
14122;DHT22;7139;48.114;11.442;2024-03-23T05:50:29;9.50;99.90
14122;DHT22;7139;48.114;11.442;2024-03-23T05:52:55;9.50;99.90
14122;DHT22;7139;48.114;11.442;2024-03-23T05:55:21;9.50;99.90
14122;DHT22;7139;48.114;11.442;2024-03-23T05:57:47;9.50;99.90
14122;DHT22;7139;48.114;11.442;2024-03-23T06:00:14;9.50;99.90
14122;DHT22;7139;48.114;11.442;2024-03-23T06:02:41;9.50;99.90
14122;DHT22;7139;48.114;11.442;2024-03-23T06:05:10;9.50;99.90
14122;DHT22;7139;48.114;11.442;2024-03-23T06:07:37;9.60;99.90
14122;DHT22;7139;48.114;11.442;2024-03-23T06:10:04;9.80;99.90
14122;DHT22;7139;48.114;11.442;2024-03-23T06:12:31;9.90;99.90
14122;DHT22;7139;48.114;11.442;2024-03-23T06:14:58;9.90;99.90
14122;DHT22;7139;48.114;11.442;2024-03-23T06:17:23;10.00;99.90
14122;DHT22;7139;48.114;11.442;2024-03-23T06:19:50;10.10;99.50
14122;DHT22;7139;48.114;11.442;2024-03-23T06:22:16;10.20;99.20
14122;DHT22;7139;48.114;11.442;2024-03-23T06:24:44;10.50;98.50
14122;DHT22;7139;48.114;11.442;2024-03-23T06:27:10;10.50;98.60
14122;DHT22;7139;48.114;11.442;2024-03-23T06:29:37;10.60;98.60
14122;DHT22;7139;48.114;11.442;2024-03-23T06:32:03;10.70;98.20
14122;DHT22;7139;48.114;11.442;2024-03-23T06:34:30;10.80;97.90
14122;DHT22;7139;48.114;11.442;2024-03-23T06:36:55;11.00;97.40
14122;DHT22;7139;48.114;11.442;2024-03-23T06:39:22;11.10;97.50
14122;DHT22;7139;48.114;11.442;2024-03-23T06:41:53;11.20;97.40
14122;DHT22;7139;48.114;11.442;2024-03-23T06:44:20;11.20;98.00
14122;DHT22;7139;48.114;11.442;2024-03-23T06:46:46;11.20;97.40
14122;DHT22;7139;48.114;11.442;2024-03-23T06:49:14;11.40;96.90
14122;DHT22;7139;48.114;11.442;2024-03-23T06:51:40;11.50;97.70
14122;DHT22;7139;48.114;11.442;2024-03-23T06:54:08;11.60;97.30
14122;DHT22;7139;48.114;11.442;2024-03-23T06:56:33;11.70;97.50
14122;DHT22;7139;48.114;11.442;2024-03-23T06:59:01;11.80;97.40
14122;DHT22;7139;48.114;11.442;2024-03-23T07:01:27;12.00;96.80
14122;DHT22;7139;48.114;11.442;2024-03-23T07:03:55;12.10;97.30
14122;DHT22;7139;48.114;11.442;2024-03-23T07:06:21;12.30;96.70
14122;DHT22;7139;48.114;11.442;2024-03-23T07:08:47;12.50;95.90
14122;DHT22;7139;48.114;11.442;2024-03-23T07:11:18;12.60;95.80
14122;DHT22;7139;48.114;11.442;2024-03-23T07:13:45;12.70;96.60
14122;DHT22;7139;48.114;11.442;2024-03-23T07:16:13;12.70;96.10
14122;DHT22;7139;48.114;11.442;2024-03-23T07:18:39;12.80;95.40
14122;DHT22;7139;48.114;11.442;2024-03-23T07:21:05;12.80;95.30
14122;DHT22;7139;48.114;11.442;2024-03-23T07:23:32;12.90;95.50
14122;DHT22;7139;48.114;11.442;2024-03-23T07:26:16;12.80;95.60
14122;DHT22;7139;48.114;11.442;2024-03-23T07:28:44;12.90;95.60
14122;DHT22;7139;48.114;11.442;2024-03-23T07:31:13;12.90;95.30
14122;DHT22;7139;48.114;11.442;2024-03-23T07:33:45;12.90;95.40
14122;DHT22;7139;48.114;11.442;2024-03-23T07:36:11;13.00;95.50
14122;DHT22;7139;48.114;11.442;2024-03-23T07:38:40;13.00;95.90
14122;DHT22;7139;48.114;11.442;2024-03-23T07:41:07;13.00;97.20
14122;DHT22;7139;48.114;11.442;2024-03-23T07:43:34;12.80;98.80
14122;DHT22;7139;48.114;11.442;2024-03-23T07:46:00;12.50;99.90
14122;DHT22;7139;48.114;11.442;2024-03-23T07:48:33;12.30;99.90
14122;DHT22;7139;48.114;11.442;2024-03-23T07:51:00;12.00;99.90
14122;DHT22;7139;48.114;11.442;2024-03-23T07:53:27;11.80;99.90
14122;DHT22;7139;48.114;11.442;2024-03-23T07:55:58;11.70;99.90
14122;DHT22;7139;48.114;11.442;2024-03-23T07:58:26;11.50;99.90
14122;DHT22;7139;48.114;11.442;2024-03-23T08:00:54;11.40;99.90
14122;DHT22;7139;48.114;11.442;2024-03-23T08:03:22;11.20;99.90
14122;DHT22;7139;48.114;11.442;2024-03-23T08:05:49;11.10;99.90
14122;DHT22;7139;48.114;11.442;2024-03-23T08:08:16;10.90;99.90
14122;DHT22;7139;48.114;11.442;2024-03-23T08:10:51;10.80;99.90
14122;DHT22;7139;48.114;11.442;2024-03-23T08:13:18;10.70;99.90
14122;DHT22;7139;48.114;11.442;2024-03-23T08:15:44;10.60;99.90
14122;DHT22;7139;48.114;11.442;2024-03-23T08:18:13;10.50;99.90
14122;DHT22;7139;48.114;11.442;2024-03-23T08:20:41;10.50;99.90
14122;DHT22;7139;48.114;11.442;2024-03-23T08:23:09;10.40;99.90
14122;DHT22;7139;48.114;11.442;2024-03-23T08:25:37;10.40;99.90
14122;DHT22;7139;48.114;11.442;2024-03-23T08:28:06;10.40;99.90
14122;DHT22;7139;48.114;11.442;2024-03-23T08:30:35;10.30;99.90
14122;DHT22;7139;48.114;11.442;2024-03-23T08:33:02;10.20;99.90
14122;DHT22;7139;48.114;11.442;2024-03-23T08:35:30;10.20;99.90
14122;DHT22;7139;48.114;11.442;2024-03-23T08:37:57;10.10;99.90
14122;DHT22;7139;48.114;11.442;2024-03-23T08:40:24;9.80;99.90
14122;DHT22;7139;48.114;11.442;2024-03-23T08:42:51;9.60;99.90
14122;DHT22;7139;48.114;11.442;2024-03-23T08:45:16;9.50;99.90
14122;DHT22;7139;48.114;11.442;2024-03-23T08:47:46;9.40;99.90
14122;DHT22;7139;48.114;11.442;2024-03-23T08:50:11;9.40;99.90
14122;DHT22;7139;48.114;11.442;2024-03-23T08:52:38;9.50;99.90
14122;DHT22;7139;48.114;11.442;2024-03-23T08:55:05;9.40;99.90
14122;DHT22;7139;48.114;11.442;2024-03-23T08:57:33;9.40;99.90
14122;DHT22;7139;48.114;11.442;2024-03-23T08:59:59;9.50;99.90
14122;DHT22;7139;48.114;11.442;2024-03-23T09:02:26;9.50;99.90
14122;DHT22;7139;48.114;11.442;2024-03-23T09:04:52;9.50;99.90
14122;DHT22;7139;48.114;11.442;2024-03-23T09:07:18;9.40;99.90
14122;DHT22;7139;48.114;11.442;2024-03-23T09:09:44;9.30;99.90
14122;DHT22;7139;48.114;11.442;2024-03-23T09:12:11;9.40;99.90
14122;DHT22;7139;48.114;11.442;2024-03-23T09:14:38;9.30;99.90
14122;DHT22;7139;48.114;11.442;2024-03-23T09:17:05;9.30;99.90
14122;DHT22;7139;48.114;11.442;2024-03-23T09:19:31;9.30;99.90
14122;DHT22;7139;48.114;11.442;2024-03-23T09:21:57;9.20;99.90
14122;DHT22;7139;48.114;11.442;2024-03-23T09:24:23;9.30;99.90
14122;DHT22;7139;48.114;11.442;2024-03-23T09:26:51;9.30;99.90
14122;DHT22;7139;48.114;11.442;2024-03-23T09:29:17;9.30;99.90
14122;DHT22;7139;48.114;11.442;2024-03-23T09:31:46;9.20;99.90
14122;DHT22;7139;48.114;11.442;2024-03-23T09:34:11;9.20;99.90
14122;DHT22;7139;48.114;11.442;2024-03-23T09:36:38;9.10;99.90
14122;DHT22;7139;48.114;11.442;2024-03-23T09:39:06;9.10;99.90
14122;DHT22;7139;48.114;11.442;2024-03-23T09:41:34;9.00;99.90
14122;DHT22;7139;48.114;11.442;2024-03-23T09:44:01;9.00;99.90
14122;DHT22;7139;48.114;11.442;2024-03-23T09:46:27;9.00;99.90
14122;DHT22;7139;48.114;11.442;2024-03-23T09:48:56;8.80;99.90
14122;DHT22;7139;48.114;11.442;2024-03-23T09:51:23;8.80;99.90
14122;DHT22;7139;48.114;11.442;2024-03-23T09:53:50;8.80;99.90
14122;DHT22;7139;48.114;11.442;2024-03-23T09:56:17;8.70;99.90
14122;DHT22;7139;48.114;11.442;2024-03-23T09:58:44;8.70;99.90
14122;DHT22;7139;48.114;11.442;2024-03-23T10:01:10;8.60;99.90
14122;DHT22;7139;48.114;11.442;2024-03-23T10:03:43;8.60;99.90
14122;DHT22;7139;48.114;11.442;2024-03-23T10:06:10;8.40;99.90
14122;DHT22;7139;48.114;11.442;2024-03-23T10:08:36;8.30;99.90
14122;DHT22;7139;48.114;11.442;2024-03-23T10:11:13;8.20;99.90
14122;DHT22;7139;48.114;11.442;2024-03-23T10:13:41;8.20;99.90
14122;DHT22;7139;48.114;11.442;2024-03-23T10:16:08;8.20;99.90
14122;DHT22;7139;48.114;11.442;2024-03-23T10:18:37;8.10;99.90
14122;DHT22;7139;48.114;11.442;2024-03-23T10:21:07;8.00;99.90
14122;DHT22;7139;48.114;11.442;2024-03-23T10:23:39;8.10;99.90
14122;DHT22;7139;48.114;11.442;2024-03-23T10:26:16;8.10;99.90
14122;DHT22;7139;48.114;11.442;2024-03-23T10:29:01;8.10;99.90
14122;DHT22;7139;48.114;11.442;2024-03-23T10:31:33;8.20;99.90
14122;DHT22;7139;48.114;11.442;2024-03-23T10:34:02;8.20;99.90
14122;DHT22;7139;48.114;11.442;2024-03-23T10:36:34;8.10;99.90
14122;DHT22;7139;48.114;11.442;2024-03-23T10:39:05;8.20;99.90
14122;DHT22;7139;48.114;11.442;2024-03-23T10:41:34;8.10;99.90
14122;DHT22;7139;48.114;11.442;2024-03-23T10:44:05;8.10;99.90
14122;DHT22;7139;48.114;11.442;2024-03-23T10:46:32;8.00;99.90
14122;DHT22;7139;48.114;11.442;2024-03-23T10:48:58;7.70;99.90
14122;DHT22;7139;48.114;11.442;2024-03-23T10:51:24;7.50;99.90
14122;DHT22;7139;48.114;11.442;2024-03-23T10:53:53;7.50;99.90
14122;DHT22;7139;48.114;11.442;2024-03-23T10:56:24;7.50;99.90
14122;DHT22;7139;48.114;11.442;2024-03-23T10:58:51;7.40;99.90
14122;DHT22;7139;48.114;11.442;2024-03-23T11:01:18;7.50;99.90
14122;DHT22;7139;48.114;11.442;2024-03-23T11:03:45;7.50;99.90
14122;DHT22;7139;48.114;11.442;2024-03-23T11:06:36;7.50;99.90
14122;DHT22;7139;48.114;11.442;2024-03-23T11:09:39;7.70;99.90
14122;DHT22;7139;48.114;11.442;2024-03-23T11:12:25;7.60;99.90
14122;DHT22;7139;48.114;11.442;2024-03-23T11:14:54;7.70;99.90
14122;DHT22;7139;48.114;11.442;2024-03-23T11:17:25;7.70;99.90
14122;DHT22;7139;48.114;11.442;2024-03-23T11:19:56;7.90;99.90
14122;DHT22;7139;48.114;11.442;2024-03-23T11:22:39;7.90;99.90
14122;DHT22;7139;48.114;11.442;2024-03-23T11:25:13;8.00;99.90
14122;DHT22;7139;48.114;11.442;2024-03-23T11:27:40;8.10;99.90
14122;DHT22;7139;48.114;11.442;2024-03-23T11:30:15;8.10;99.90
14122;DHT22;7139;48.114;11.442;2024-03-23T11:32:43;8.20;99.90
14122;DHT22;7139;48.114;11.442;2024-03-23T11:35:09;8.30;99.90
14122;DHT22;7139;48.114;11.442;2024-03-23T11:37:36;8.30;99.90
14122;DHT22;7139;48.114;11.442;2024-03-23T11:40:19;8.40;99.90
14122;DHT22;7139;48.114;11.442;2024-03-23T11:42:47;8.40;99.90
14122;DHT22;7139;48.114;11.442;2024-03-23T11:45:14;8.50;99.90
14122;DHT22;7139;48.114;11.442;2024-03-23T11:47:41;8.50;99.90
14122;DHT22;7139;48.114;11.442;2024-03-23T11:50:08;8.50;99.90
14122;DHT22;7139;48.114;11.442;2024-03-23T11:52:34;8.50;99.90
14122;DHT22;7139;48.114;11.442;2024-03-23T11:55:05;8.50;99.90
14122;DHT22;7139;48.114;11.442;2024-03-23T11:57:33;8.60;99.90
14122;DHT22;7139;48.114;11.442;2024-03-23T12:00:01;8.60;99.90
14122;DHT22;7139;48.114;11.442;2024-03-23T12:02:28;8.70;99.90
14122;DHT22;7139;48.114;11.442;2024-03-23T12:04:55;8.70;99.90
14122;DHT22;7139;48.114;11.442;2024-03-23T12:07:20;8.70;99.90
14122;DHT22;7139;48.114;11.442;2024-03-23T12:10:02;8.60;99.90
14122;DHT22;7139;48.114;11.442;2024-03-23T12:12:29;8.60;99.90
14122;DHT22;7139;48.114;11.442;2024-03-23T12:15:04;8.60;99.90
14122;DHT22;7139;48.114;11.442;2024-03-23T12:17:31;8.50;99.90
14122;DHT22;7139;48.114;11.442;2024-03-23T12:19:58;8.50;99.90
14122;DHT22;7139;48.114;11.442;2024-03-23T12:22:24;8.30;99.90
14122;DHT22;7139;48.114;11.442;2024-03-23T12:24:52;8.30;99.90
14122;DHT22;7139;48.114;11.442;2024-03-23T12:27:18;8.40;99.90
14122;DHT22;7139;48.114;11.442;2024-03-23T12:29:45;8.50;99.90
14122;DHT22;7139;48.114;11.442;2024-03-23T12:32:14;8.50;99.90
14122;DHT22;7139;48.114;11.442;2024-03-23T12:34:58;8.50;99.90
14122;DHT22;7139;48.114;11.442;2024-03-23T12:37:24;8.40;99.90
14122;DHT22;7139;48.114;11.442;2024-03-23T12:39:50;8.50;99.90
14122;DHT22;7139;48.114;11.442;2024-03-23T12:42:19;8.50;99.90
14122;DHT22;7139;48.114;11.442;2024-03-23T12:44:46;8.40;99.90
14122;DHT22;7139;48.114;11.442;2024-03-23T12:47:14;8.40;99.90
14122;DHT22;7139;48.114;11.442;2024-03-23T12:49:41;8.50;99.90
14122;DHT22;7139;48.114;11.442;2024-03-23T12:52:07;8.50;99.90
14122;DHT22;7139;48.114;11.442;2024-03-23T12:54:34;8.50;99.90
14122;DHT22;7139;48.114;11.442;2024-03-23T12:57:00;8.70;99.90
14122;DHT22;7139;48.114;11.442;2024-03-23T12:59:28;8.80;99.90
14122;DHT22;7139;48.114;11.442;2024-03-23T13:01:54;8.90;99.90
14122;DHT22;7139;48.114;11.442;2024-03-23T13:04:22;8.90;99.90
14122;DHT22;7139;48.114;11.442;2024-03-23T13:06:47;8.90;99.90
14122;DHT22;7139;48.114;11.442;2024-03-23T13:09:14;8.80;99.90
14122;DHT22;7139;48.114;11.442;2024-03-23T13:11:40;8.80;99.90
14122;DHT22;7139;48.114;11.442;2024-03-23T13:14:07;8.80;99.90
14122;DHT22;7139;48.114;11.442;2024-03-23T13:16:33;8.70;99.90
14122;DHT22;7139;48.114;11.442;2024-03-23T13:18:59;8.60;99.90
14122;DHT22;7139;48.114;11.442;2024-03-23T13:21:28;8.60;99.90
14122;DHT22;7139;48.114;11.442;2024-03-23T13:23:53;8.60;99.80
14122;DHT22;7139;48.114;11.442;2024-03-23T13:26:20;8.60;99.90
14122;DHT22;7139;48.114;11.442;2024-03-23T13:28:46;8.60;99.80
14122;DHT22;7139;48.114;11.442;2024-03-23T13:31:13;8.70;99.70
14122;DHT22;7139;48.114;11.442;2024-03-23T13:33:39;8.70;99.90
14122;DHT22;7139;48.114;11.442;2024-03-23T13:36:08;8.80;99.50
14122;DHT22;7139;48.114;11.442;2024-03-23T13:38:35;8.80;99.80
14122;DHT22;7139;48.114;11.442;2024-03-23T13:41:02;8.80;99.90
14122;DHT22;7139;48.114;11.442;2024-03-23T13:43:30;8.80;99.90
14122;DHT22;7139;48.114;11.442;2024-03-23T13:45:58;8.80;99.60
14122;DHT22;7139;48.114;11.442;2024-03-23T13:48:25;8.80;99.70
14122;DHT22;7139;48.114;11.442;2024-03-23T13:50:58;8.80;99.20
14122;DHT22;7139;48.114;11.442;2024-03-23T13:53:24;8.70;99.90
14122;DHT22;7139;48.114;11.442;2024-03-23T13:55:52;8.70;99.70
14122;DHT22;7139;48.114;11.442;2024-03-23T13:58:18;8.60;99.90
14122;DHT22;7139;48.114;11.442;2024-03-23T14:00:45;8.40;99.90
14122;DHT22;7139;48.114;11.442;2024-03-23T14:03:12;8.00;99.90
14122;DHT22;7139;48.114;11.442;2024-03-23T14:05:40;7.70;99.90
14122;DHT22;7139;48.114;11.442;2024-03-23T14:08:06;7.30;99.90
14122;DHT22;7139;48.114;11.442;2024-03-23T14:10:33;7.30;99.90
14122;DHT22;7139;48.114;11.442;2024-03-23T14:13:01;7.20;99.90
14122;DHT22;7139;48.114;11.442;2024-03-23T14:15:28;7.20;99.90
14122;DHT22;7139;48.114;11.442;2024-03-23T14:17:54;7.20;99.90
14122;DHT22;7139;48.114;11.442;2024-03-23T14:20:21;7.30;99.90
14122;DHT22;7139;48.114;11.442;2024-03-23T14:22:47;7.40;99.90
14122;DHT22;7139;48.114;11.442;2024-03-23T14:25:14;7.40;99.90
14122;DHT22;7139;48.114;11.442;2024-03-23T14:27:40;7.40;99.90
14122;DHT22;7139;48.114;11.442;2024-03-23T14:30:09;7.50;99.90
14122;DHT22;7139;48.114;11.442;2024-03-23T14:32:35;7.40;99.90
14122;DHT22;7139;48.114;11.442;2024-03-23T14:35:03;7.40;99.90
14122;DHT22;7139;48.114;11.442;2024-03-23T14:37:29;7.40;99.90
14122;DHT22;7139;48.114;11.442;2024-03-23T14:39:56;7.50;99.90
14122;DHT22;7139;48.114;11.442;2024-03-23T14:42:22;7.40;99.90
14122;DHT22;7139;48.114;11.442;2024-03-23T14:45:10;7.40;99.90
14122;DHT22;7139;48.114;11.442;2024-03-23T14:47:37;7.20;99.90
14122;DHT22;7139;48.114;11.442;2024-03-23T14:50:04;7.10;99.90
14122;DHT22;7139;48.114;11.442;2024-03-23T14:52:30;7.20;99.90
14122;DHT22;7139;48.114;11.442;2024-03-23T14:54:57;7.20;99.90
14122;DHT22;7139;48.114;11.442;2024-03-23T14:57:22;7.20;99.90
14122;DHT22;7139;48.114;11.442;2024-03-23T14:59:49;6.90;99.90
14122;DHT22;7139;48.114;11.442;2024-03-23T15:02:17;6.70;99.90
14122;DHT22;7139;48.114;11.442;2024-03-23T15:04:43;6.60;99.90
14122;DHT22;7139;48.114;11.442;2024-03-23T15:07:09;6.60;99.90
14122;DHT22;7139;48.114;11.442;2024-03-23T15:09:36;6.40;99.90
14122;DHT22;7139;48.114;11.442;2024-03-23T15:12:02;6.30;99.90
14122;DHT22;7139;48.114;11.442;2024-03-23T15:14:29;6.20;99.90
14122;DHT22;7139;48.114;11.442;2024-03-23T15:16:55;6.30;99.90
14122;DHT22;7139;48.114;11.442;2024-03-23T15:19:23;6.30;99.90
14122;DHT22;7139;48.114;11.442;2024-03-23T15:21:48;6.40;99.90
14122;DHT22;7139;48.114;11.442;2024-03-23T15:24:15;6.40;99.90
14122;DHT22;7139;48.114;11.442;2024-03-23T15:26:41;6.50;99.90
14122;DHT22;7139;48.114;11.442;2024-03-23T15:29:09;6.50;99.90
14122;DHT22;7139;48.114;11.442;2024-03-23T15:31:42;6.60;99.90
14122;DHT22;7139;48.114;11.442;2024-03-23T15:34:09;6.70;99.90
14122;DHT22;7139;48.114;11.442;2024-03-23T15:36:37;6.70;99.90
14122;DHT22;7139;48.114;11.442;2024-03-23T15:39:04;6.70;99.90
14122;DHT22;7139;48.114;11.442;2024-03-23T15:41:30;6.70;99.90
14122;DHT22;7139;48.114;11.442;2024-03-23T15:43:59;6.80;99.90
14122;DHT22;7139;48.114;11.442;2024-03-23T15:46:25;6.80;99.90
14122;DHT22;7139;48.114;11.442;2024-03-23T15:48:52;6.80;99.90
14122;DHT22;7139;48.114;11.442;2024-03-23T15:51:18;7.00;99.90
14122;DHT22;7139;48.114;11.442;2024-03-23T15:53:46;7.30;99.90
14122;DHT22;7139;48.114;11.442;2024-03-23T15:56:12;7.60;99.90
14122;DHT22;7139;48.114;11.442;2024-03-23T15:58:39;7.80;99.90
14122;DHT22;7139;48.114;11.442;2024-03-23T16:01:06;7.90;99.90
14122;DHT22;7139;48.114;11.442;2024-03-23T16:03:34;7.90;99.90
14122;DHT22;7139;48.114;11.442;2024-03-23T16:06:02;7.80;99.90
14122;DHT22;7139;48.114;11.442;2024-03-23T16:08:30;7.70;99.90
14122;DHT22;7139;48.114;11.442;2024-03-23T16:11:01;7.70;99.90
14122;DHT22;7139;48.114;11.442;2024-03-23T16:13:28;7.70;99.90
14122;DHT22;7139;48.114;11.442;2024-03-23T16:15:55;7.60;99.90
14122;DHT22;7139;48.114;11.442;2024-03-23T16:18:22;7.50;99.90
14122;DHT22;7139;48.114;11.442;2024-03-23T16:20:53;7.40;99.90
14122;DHT22;7139;48.114;11.442;2024-03-23T16:23:20;7.30;99.90
14122;DHT22;7139;48.114;11.442;2024-03-23T16:25:49;7.30;99.90
14122;DHT22;7139;48.114;11.442;2024-03-23T16:28:23;7.30;99.90
14122;DHT22;7139;48.114;11.442;2024-03-23T16:30:57;7.30;99.90
14122;DHT22;7139;48.114;11.442;2024-03-23T16:33:24;7.20;99.90
14122;DHT22;7139;48.114;11.442;2024-03-23T16:35:57;7.20;99.90
14122;DHT22;7139;48.114;11.442;2024-03-23T16:38:24;7.20;99.90
14122;DHT22;7139;48.114;11.442;2024-03-23T16:40:54;7.20;99.90